createdAt,value
2018-06-20T00:00:06.103Z,5.00
2018-06-20T00:02:33.850Z,3.37
2018-06-20T00:05:01.638Z,3.60
2018-06-20T00:07:29.498Z,4.87
2018-06-20T00:09:57.257Z,3.40
2018-06-20T00:12:24.918Z,4.30
2018-06-20T00:14:52.856Z,3.43
2018-06-20T00:17:20.464Z,3.13
2018-06-20T00:19:48.313Z,3.47
2018-06-20T00:22:16.157Z,3.90
2018-06-20T00:24:43.779Z,3.40
2018-06-20T00:27:11.575Z,3.53
2018-06-20T00:29:39.508Z,3.50
2018-06-20T00:32:07.383Z,3.33
2018-06-20T00:34:35.001Z,3.47
2018-06-20T00:37:02.767Z,3.97
2018-06-20T00:39:30.406Z,3.23
2018-06-20T00:41:58.192Z,3.20
2018-06-20T00:44:25.854Z,3.40
2018-06-20T00:46:53.534Z,3.13
2018-06-20T00:49:21.214Z,3.50
2018-06-20T00:51:49.104Z,3.30
2018-06-20T00:54:16.804Z,4.17
2018-06-20T00:56:44.631Z,2.93
2018-06-20T00:59:12.339Z,2.80
2018-06-20T01:01:40.156Z,3.37
2018-06-20T01:04:07.861Z,3.37
2018-06-20T01:06:36.210Z,7.00
2018-06-20T01:09:07.658Z,2.90
2018-06-20T01:11:36.116Z,3.87
2018-06-20T01:14:03.994Z,3.53
2018-06-20T01:16:31.657Z,3.30
2018-06-20T01:18:59.371Z,3.40
2018-06-20T01:21:27.175Z,4.83
2018-06-20T01:23:56.020Z,4.60
2018-06-20T01:26:23.913Z,2.90
2018-06-20T01:28:51.571Z,5.80
2018-06-20T01:31:19.431Z,5.57
2018-06-20T01:33:47.385Z,6.80
2018-06-20T01:36:15.408Z,3.77
2018-06-20T01:38:43.330Z,3.13
2018-06-20T01:41:11.503Z,3.67
2018-06-20T01:43:39.209Z,3.43
2018-06-20T01:46:07.272Z,5.90
2018-06-20T01:48:35.098Z,3.37
2018-06-20T01:51:02.853Z,3.30
2018-06-20T01:53:30.876Z,9.13
2018-06-20T01:55:58.665Z,3.67
2018-06-20T01:58:26.397Z,3.57
2018-06-20T02:00:54.520Z,6.00
2018-06-20T02:03:22.160Z,4.90
2018-06-20T02:05:50.070Z,3.10
2018-06-20T02:08:18.110Z,6.93
2018-06-20T02:10:46.046Z,3.33
2018-06-20T02:13:13.859Z,6.93
2018-06-20T02:15:42.231Z,3.70
2018-06-20T02:18:10.290Z,2.60
2018-06-20T02:20:38.641Z,8.40
2018-06-20T02:23:06.453Z,4.17
2018-06-20T02:25:34.090Z,3.80
2018-06-20T02:28:01.956Z,3.97
2018-06-20T02:30:29.783Z,4.13
2018-06-20T02:32:57.738Z,4.93
2018-06-20T02:35:25.564Z,3.60
2018-06-20T02:37:53.487Z,3.57
2018-06-20T02:40:21.241Z,5.63
2018-06-20T02:42:49.212Z,3.70
2018-06-20T02:45:17.005Z,10.00
2018-06-20T02:47:45.107Z,4.93
2018-06-20T02:50:14.039Z,3.87
2018-06-20T02:52:42.114Z,5.50
2018-06-20T02:55:10.232Z,4.80
2018-06-20T02:57:38.083Z,3.07
2018-06-20T03:00:05.920Z,3.90
2018-06-20T03:02:33.847Z,3.50
2018-06-20T03:05:01.461Z,5.17
2018-06-20T03:07:29.121Z,4.30
2018-06-20T03:09:56.808Z,5.07
2018-06-20T03:12:24.715Z,3.83
2018-06-20T03:14:52.600Z,3.67
2018-06-20T03:17:20.404Z,4.00
2018-06-20T03:19:48.047Z,9.03
2018-06-20T03:22:15.851Z,3.97
2018-06-20T03:24:43.577Z,4.63
2018-06-20T03:27:11.294Z,5.50
2018-06-20T03:29:39.292Z,4.17
2018-06-20T03:32:07.040Z,8.57
2018-06-20T03:34:34.766Z,3.67
2018-06-20T03:37:02.905Z,6.57
2018-06-20T03:39:30.961Z,8.30
2018-06-20T03:41:59.119Z,8.40
2018-06-20T03:44:27.048Z,3.77
2018-06-20T03:46:54.839Z,6.47
2018-06-20T03:49:22.662Z,4.57
2018-06-20T03:51:50.315Z,4.53
2018-06-20T03:54:18.082Z,7.90
2018-06-20T03:56:45.956Z,6.93
2018-06-20T03:59:13.900Z,6.93
2018-06-20T04:01:41.955Z,4.87
2018-06-20T04:04:09.691Z,4.73
2018-06-20T04:06:37.368Z,5.33
2018-06-20T04:09:07.164Z,4.80
2018-06-20T04:11:36.159Z,5.03
2018-06-20T04:14:04.105Z,5.20
2018-06-20T04:16:31.814Z,4.87
2018-06-20T04:18:59.669Z,4.90
2018-06-20T04:21:27.476Z,15.13
2018-06-20T04:23:55.551Z,14.03
2018-06-20T04:26:23.718Z,8.20
2018-06-20T04:28:51.511Z,11.20
2018-06-20T04:31:19.312Z,5.50
2018-06-20T04:33:47.332Z,7.03
2018-06-20T04:36:15.033Z,14.57
2018-06-20T04:38:42.948Z,15.70
2018-06-20T04:41:10.853Z,18.13
2018-06-20T04:43:38.799Z,12.20
2018-06-20T04:46:06.583Z,26.30
2018-06-20T04:48:34.164Z,86.07
2018-06-20T04:51:02.211Z,95.97
2018-06-20T04:53:30.244Z,82.00
2018-06-20T04:55:58.162Z,46.03
2018-06-20T04:58:25.983Z,21.97
2018-06-20T05:00:53.914Z,15.30
2018-06-20T05:03:21.580Z,10.13
2018-06-20T05:05:49.398Z,8.47
2018-06-20T05:08:17.471Z,7.07
2018-06-20T05:10:45.553Z,8.50
2018-06-20T05:13:13.501Z,7.70
2018-06-20T05:15:41.700Z,8.80
2018-06-20T05:18:09.642Z,10.10
2018-06-20T05:20:37.365Z,6.43
2018-06-20T05:23:05.062Z,7.10
2018-06-20T05:25:32.722Z,6.30
2018-06-20T05:28:00.330Z,7.33
2018-06-20T05:30:28.107Z,6.87
2018-06-20T05:32:56.143Z,6.77
2018-06-20T05:35:23.746Z,6.50
2018-06-20T05:37:51.603Z,10.67
2018-06-20T05:40:19.150Z,7.77
2018-06-20T05:42:46.867Z,7.73
2018-06-20T05:45:14.518Z,10.00
2018-06-20T05:47:42.261Z,7.00
2018-06-20T05:50:10.011Z,6.57
2018-06-20T05:52:38.139Z,10.10
2018-06-20T05:55:07.602Z,11.20
2018-06-20T05:57:35.294Z,7.13
2018-06-20T06:00:03.084Z,9.93
2018-06-20T06:02:31.072Z,7.07
2018-06-20T06:04:58.593Z,7.77
2018-06-20T06:07:26.300Z,11.30
2018-06-20T06:09:54.098Z,8.53
2018-06-20T06:12:21.819Z,9.07
2018-06-20T06:14:49.862Z,7.03
2018-06-20T06:17:18.015Z,6.60
2018-06-20T06:19:45.741Z,8.43
2018-06-20T06:22:13.651Z,8.63
2018-06-20T06:24:41.416Z,9.63
2018-06-20T06:27:09.070Z,6.37
2018-06-20T06:29:36.757Z,6.20
2018-06-20T06:32:04.537Z,5.40
2018-06-20T06:34:32.115Z,5.23
2018-06-20T06:37:00.087Z,6.30
2018-06-20T06:39:27.825Z,13.70
2018-06-20T06:41:55.706Z,6.40
2018-06-20T06:44:23.641Z,6.43
2018-06-20T06:46:52.201Z,11.30
2018-06-20T06:49:20.630Z,4.93
2018-06-20T06:51:50.129Z,5.00
2018-06-20T06:54:17.806Z,4.10
2018-06-20T06:56:45.496Z,4.90
2018-06-20T06:59:13.185Z,4.27
2018-06-20T07:01:41.372Z,4.60
2018-06-20T07:04:09.313Z,3.87
2018-06-20T07:06:37.095Z,4.43
2018-06-20T07:09:06.788Z,4.00
2018-06-20T07:11:35.709Z,3.97
2018-06-20T07:14:03.479Z,4.00
2018-06-20T07:16:31.190Z,4.10
2018-06-20T07:18:58.972Z,3.97
2018-06-20T07:21:26.735Z,4.50
2018-06-20T07:23:55.000Z,3.93
2018-06-20T07:26:22.828Z,5.23
2018-06-20T07:28:50.549Z,5.03
2018-06-20T07:31:18.196Z,4.37
2018-06-20T07:33:46.456Z,4.20
2018-06-20T07:36:14.207Z,3.70
2018-06-20T07:38:42.819Z,5.03
2018-06-20T07:41:10.508Z,3.50
2018-06-20T07:43:38.272Z,4.20
2018-06-20T07:46:06.122Z,4.20
2018-06-20T07:48:33.826Z,12.00
2018-06-20T07:51:01.527Z,5.30
2018-06-20T07:53:29.489Z,4.70
2018-06-20T07:55:57.296Z,5.90
2018-06-20T07:58:31.419Z,3.80
2018-06-20T08:01:05.080Z,4.00
2018-06-20T08:03:38.426Z,4.03
2018-06-20T08:06:11.725Z,5.93
2018-06-20T08:08:45.242Z,3.73
2018-06-20T08:11:18.752Z,3.00
2018-06-20T08:13:52.285Z,8.13
2018-06-20T08:16:25.711Z,3.80
2018-06-20T08:18:58.968Z,3.53
2018-06-20T08:21:26.814Z,2.23
2018-06-20T08:23:55.243Z,2.10
2018-06-20T08:26:23.293Z,2.47
2018-06-20T08:28:51.022Z,2.50
2018-06-20T08:31:18.837Z,2.93
2018-06-20T08:33:46.623Z,2.60
2018-06-20T08:36:14.562Z,2.33
2018-06-20T08:38:42.453Z,2.33
2018-06-20T08:41:10.464Z,2.30
2018-06-20T08:43:38.485Z,2.30
2018-06-20T08:46:06.524Z,6.33
2018-06-20T08:48:34.416Z,2.53
2018-06-20T08:51:02.544Z,4.33
2018-06-20T08:53:31.380Z,2.53
2018-06-20T08:55:59.044Z,2.60
2018-06-20T08:58:27.040Z,2.57
2018-06-20T09:01:01.714Z,3.53
2018-06-20T09:03:30.075Z,2.53
2018-06-20T09:06:03.567Z,3.03
2018-06-20T09:09:35.473Z,2.20
2018-06-20T09:12:08.994Z,2.77
2018-06-20T09:14:42.544Z,2.90
2018-06-20T09:17:15.876Z,2.93
2018-06-20T09:19:45.289Z,5.30
2018-06-20T09:22:13.676Z,8.27
2018-06-20T09:24:41.553Z,2.37
2018-06-20T09:27:09.344Z,3.57
2018-06-20T09:29:37.221Z,2.80
2018-06-20T09:32:05.121Z,2.87
2018-06-20T09:34:33.101Z,2.67
2018-06-20T09:37:01.071Z,2.60
2018-06-20T09:39:28.897Z,4.33
2018-06-20T09:41:56.552Z,6.53
2018-06-20T09:44:24.553Z,3.00
2018-06-20T09:46:52.516Z,2.07
2018-06-20T09:49:20.457Z,2.53
2018-06-20T09:51:48.617Z,2.83
2018-06-20T09:54:16.499Z,2.37
2018-06-20T09:56:44.241Z,2.30
2018-06-20T09:59:17.746Z,2.40
2018-06-20T10:01:51.125Z,2.80
2018-06-20T10:04:24.321Z,2.30
2018-06-20T10:06:57.811Z,2.90
2018-06-20T10:09:31.080Z,4.67
2018-06-20T10:12:04.318Z,6.70
2018-06-20T10:14:32.752Z,1.90
2018-06-20T10:17:00.484Z,2.00
2018-06-20T10:19:28.213Z,2.30
2018-06-20T10:21:56.084Z,4.23
2018-06-20T10:24:24.961Z,2.03
2018-06-20T10:26:53.116Z,2.13
2018-06-20T10:29:20.908Z,4.73
2018-06-20T10:31:49.163Z,2.90
2018-06-20T10:34:17.496Z,3.70
2018-06-20T10:36:45.512Z,2.13
2018-06-20T10:39:13.255Z,2.10
2018-06-20T10:41:41.519Z,2.40
2018-06-20T10:44:11.929Z,6.50
2018-06-20T10:46:45.931Z,2.67
2018-06-20T10:49:14.203Z,2.47
2018-06-20T10:51:42.346Z,2.60
2018-06-20T10:54:10.194Z,3.73
2018-06-20T10:56:43.747Z,4.50
2018-06-20T10:59:17.100Z,3.83
2018-06-20T11:01:50.337Z,3.20
2018-06-20T11:04:23.564Z,2.40
2018-06-20T11:06:57.069Z,3.60
2018-06-20T11:09:30.327Z,2.40
2018-06-20T11:12:03.641Z,2.10
2018-06-20T11:14:31.848Z,2.73
2018-06-20T11:16:59.516Z,5.17
2018-06-20T11:19:27.477Z,2.80
2018-06-20T11:21:55.855Z,2.47
2018-06-20T11:24:23.810Z,5.80
2018-06-20T11:26:51.480Z,2.20
2018-06-20T11:29:19.206Z,2.53
2018-06-20T11:31:46.948Z,4.10
2018-06-20T11:34:14.914Z,2.60
2018-06-20T11:36:42.476Z,2.40
2018-06-20T11:39:11.980Z,3.33
2018-06-20T11:41:39.971Z,2.33
2018-06-20T11:44:07.750Z,2.23
2018-06-20T11:46:42.252Z,3.50
2018-06-20T11:49:10.398Z,2.77
2018-06-20T11:51:38.075Z,2.70
2018-06-20T11:54:07.006Z,2.57
2018-06-20T11:56:36.676Z,2.90
2018-06-20T11:59:09.990Z,4.40
2018-06-20T12:01:43.426Z,2.90
2018-06-20T12:04:16.663Z,2.63
2018-06-20T12:06:50.224Z,2.47
2018-06-20T12:09:23.674Z,2.77
2018-06-20T12:11:57.021Z,2.23
2018-06-20T12:14:30.347Z,5.97
2018-06-20T12:16:57.570Z,2.30
2018-06-20T12:19:30.929Z,2.60
2018-06-20T12:22:04.452Z,2.90
2018-06-20T12:24:37.786Z,3.03
2018-06-20T12:27:11.112Z,2.70
2018-06-20T12:29:44.412Z,2.67
2018-06-20T12:32:17.974Z,3.70
2018-06-20T12:34:51.514Z,4.40
2018-06-20T12:37:25.213Z,3.23
2018-06-20T12:39:58.422Z,2.40
2018-06-20T12:42:31.674Z,7.37
2018-06-20T12:45:01.334Z,2.30
2018-06-20T12:47:33.928Z,3.80
2018-06-20T12:50:07.158Z,2.97
2018-06-20T12:52:34.964Z,2.30
2018-06-20T12:55:02.730Z,2.13
2018-06-20T12:57:30.543Z,2.00
2018-06-20T12:59:58.674Z,2.47
2018-06-20T13:02:26.346Z,2.30
2018-06-20T13:04:53.985Z,5.30
2018-06-20T13:07:21.662Z,3.40
2018-06-20T13:09:49.439Z,2.13
2018-06-20T13:12:17.262Z,8.20
2018-06-20T13:14:46.034Z,11.83
2018-06-20T13:17:13.787Z,3.90
2018-06-20T13:19:41.594Z,8.43
2018-06-20T13:22:09.680Z,2.10
2018-06-20T13:24:37.366Z,2.00
2018-06-20T13:27:05.063Z,13.73
2018-06-20T13:29:32.904Z,4.20
2018-06-20T13:32:06.357Z,2.33
2018-06-20T13:34:39.548Z,2.00
2018-06-20T13:37:12.765Z,2.77
2018-06-20T13:39:46.081Z,2.30
2018-06-20T13:42:21.131Z,1.90
2018-06-20T13:44:48.869Z,3.70
2018-06-20T13:47:22.432Z,3.90
2018-06-20T13:49:54.740Z,2.67
2018-06-20T13:52:22.921Z,3.43
2018-06-20T13:54:50.694Z,2.87
2018-06-20T13:57:18.435Z,2.03
2018-06-20T13:59:46.351Z,2.60
2018-06-20T14:02:14.427Z,3.23
2018-06-20T14:04:42.412Z,2.50
2018-06-20T14:07:10.244Z,2.23
2018-06-20T14:09:37.929Z,5.60
2018-06-20T14:12:05.830Z,1.97
2018-06-20T14:14:34.036Z,3.57
2018-06-20T14:17:02.101Z,7.00
2018-06-20T14:19:35.327Z,2.07
2018-06-20T14:22:03.199Z,2.10
2018-06-20T14:24:30.909Z,2.70
2018-06-20T14:26:58.493Z,9.70
2018-06-20T14:29:30.705Z,2.83
2018-06-20T14:32:04.258Z,1.87
2018-06-20T14:34:37.810Z,2.97
2018-06-20T14:37:11.125Z,2.00
2018-06-20T14:39:44.337Z,3.23
2018-06-20T14:42:17.666Z,2.47
2018-06-20T14:44:45.564Z,1.90
2018-06-20T14:47:13.066Z,3.60
2018-06-20T14:49:40.928Z,2.00
2018-06-20T14:52:08.781Z,4.63
2018-06-20T14:54:36.460Z,5.73
2018-06-20T14:57:04.158Z,2.00
2018-06-20T14:59:31.828Z,3.13
2018-06-20T15:01:59.497Z,3.97
2018-06-20T15:04:27.112Z,4.97
2018-06-20T15:06:54.980Z,2.47
2018-06-20T15:09:22.700Z,2.70
2018-06-20T15:11:50.397Z,2.20
2018-06-20T15:14:18.092Z,2.40
2018-06-20T15:16:51.390Z,2.17
2018-06-20T15:19:19.038Z,2.17
2018-06-20T15:21:46.735Z,2.80
2018-06-20T15:24:14.701Z,2.37
2018-06-20T15:26:47.956Z,2.20
2018-06-20T15:29:21.505Z,2.83
2018-06-20T15:31:54.858Z,2.43
2018-06-20T15:34:28.353Z,2.20
2018-06-20T15:37:01.781Z,2.80
2018-06-20T15:39:29.513Z,1.90
2018-06-20T15:41:57.830Z,3.60
2018-06-20T15:44:25.465Z,2.03
2018-06-20T15:46:53.365Z,2.50
2018-06-20T15:49:21.529Z,1.90
2018-06-20T15:51:49.178Z,2.63
2018-06-20T15:54:16.725Z,2.50
2018-06-20T15:56:44.531Z,2.30
2018-06-20T15:59:12.284Z,2.63
2018-06-20T16:01:40.766Z,2.17
2018-06-20T16:04:08.891Z,2.03
2018-06-20T16:06:37.364Z,1.80
2018-06-20T16:09:12.431Z,2.30
2018-06-20T16:11:40.099Z,2.20
2018-06-20T16:14:07.974Z,1.83
2018-06-20T16:16:36.338Z,8.77
2018-06-20T16:19:09.747Z,2.27
2018-06-20T16:21:43.183Z,1.83
2018-06-20T16:24:16.651Z,3.37
2018-06-20T16:26:49.845Z,1.97
2018-06-20T16:29:23.113Z,6.80
2018-06-20T16:31:50.928Z,2.20
2018-06-20T16:34:19.603Z,2.40
2018-06-20T16:36:47.316Z,4.30
2018-06-20T16:39:15.168Z,2.73
2018-06-20T16:41:43.082Z,2.60
2018-06-20T16:44:11.381Z,2.17
2018-06-20T16:46:39.389Z,2.30
2018-06-20T16:49:07.652Z,2.10
2018-06-20T16:51:36.549Z,2.20
2018-06-20T16:54:06.250Z,3.17
2018-06-20T16:56:35.618Z,2.50
2018-06-20T16:59:04.547Z,4.77
2018-06-20T17:01:37.836Z,2.47
2018-06-20T17:04:06.321Z,2.13
2018-06-20T17:06:35.402Z,2.17
2018-06-20T17:09:05.430Z,3.53
2018-06-20T17:11:33.915Z,2.07
2018-06-20T17:14:07.626Z,4.33
2018-06-20T17:16:41.775Z,2.40
2018-06-20T17:19:15.300Z,2.60
2018-06-20T17:21:48.583Z,4.93
2018-06-20T17:24:21.873Z,2.60
2018-06-20T17:26:49.819Z,2.20
2018-06-20T17:29:17.492Z,5.30
2018-06-20T17:31:47.101Z,2.27
2018-06-20T17:34:16.238Z,2.70
2018-06-20T17:36:46.178Z,2.30
2018-06-20T17:39:14.361Z,2.53
2018-06-20T17:41:42.319Z,2.60
2018-06-20T17:44:10.415Z,2.43
2018-06-20T17:46:42.309Z,5.80
2018-06-20T17:49:14.623Z,2.17
2018-06-20T17:51:43.410Z,4.53
2018-06-20T17:54:12.095Z,2.50
2018-06-20T17:56:40.828Z,2.43
2018-06-20T17:59:10.154Z,2.40
2018-06-20T18:01:38.082Z,2.70
2018-06-20T18:04:06.238Z,3.23
2018-06-20T18:06:39.636Z,3.43
2018-06-20T18:09:13.351Z,2.30
2018-06-20T18:11:49.091Z,4.17
2018-06-20T18:14:22.361Z,3.03
2018-06-20T18:16:57.078Z,3.33
2018-06-20T18:19:26.594Z,2.77
2018-06-20T18:21:54.374Z,2.53
2018-06-20T18:24:22.054Z,2.70
2018-06-20T18:26:51.205Z,2.67
2018-06-20T18:29:21.517Z,2.90
2018-06-20T18:31:49.417Z,3.23
2018-06-20T18:34:18.403Z,3.23
2018-06-20T18:36:47.083Z,2.50
2018-06-20T18:39:15.549Z,2.97
2018-06-20T18:41:43.536Z,2.93
2018-06-20T18:44:12.381Z,3.17
2018-06-20T18:46:40.778Z,2.77
2018-06-20T18:49:08.666Z,2.80
2018-06-20T18:51:38.470Z,3.80
2018-06-20T18:54:06.521Z,2.80
2018-06-20T18:56:34.612Z,2.80
2018-06-20T18:59:08.090Z,3.03
2018-06-20T19:01:41.990Z,2.63
2018-06-20T19:04:15.394Z,3.07
2018-06-20T19:06:49.027Z,7.17
2018-06-20T19:09:18.600Z,7.53
2018-06-20T19:11:46.839Z,3.60
2018-06-20T19:14:14.625Z,2.77
2018-06-20T19:16:42.478Z,3.53
2018-06-20T19:19:10.492Z,4.13
2018-06-20T19:21:38.454Z,3.93
2018-06-20T19:24:06.443Z,3.17
2018-06-20T19:26:35.631Z,4.83
2018-06-20T19:29:03.687Z,6.33
2018-06-20T19:31:31.719Z,3.27
2018-06-20T19:34:00.282Z,3.17
2018-06-20T19:36:28.038Z,4.00
2018-06-20T19:38:56.029Z,6.20
2018-06-20T19:41:24.265Z,6.20
2018-06-20T19:43:57.574Z,3.50
2018-06-20T19:46:25.415Z,5.20
2018-06-20T19:48:53.194Z,3.43
2018-06-20T19:51:21.064Z,4.43
2018-06-20T19:53:48.914Z,3.60
2018-06-20T19:56:16.757Z,6.30
2018-06-20T19:58:44.761Z,3.77
2018-06-20T20:01:12.922Z,4.03
2018-06-20T20:03:40.602Z,5.43
2018-06-20T20:06:08.498Z,3.33
2018-06-20T20:08:36.382Z,3.60
2018-06-20T20:11:04.249Z,4.63
2018-06-20T20:13:32.575Z,3.63
2018-06-20T20:16:00.212Z,3.83
2018-06-20T20:18:28.339Z,5.90
2018-06-20T20:20:56.477Z,7.77
2018-06-20T20:23:24.282Z,3.90
2018-06-20T20:25:52.055Z,3.67
2018-06-20T20:28:20.914Z,3.57
2018-06-20T20:30:48.849Z,9.30
2018-06-20T20:33:16.938Z,8.77
2018-06-20T20:35:44.656Z,3.40
2018-06-20T20:38:12.716Z,3.77
2018-06-20T20:40:40.630Z,7.33
2018-06-20T20:43:08.691Z,4.67
2018-06-20T20:45:36.562Z,4.07
2018-06-20T20:48:04.629Z,4.17
2018-06-20T20:50:32.608Z,3.73
2018-06-20T20:53:01.559Z,3.43
2018-06-20T20:55:29.306Z,4.33
2018-06-20T20:57:57.528Z,3.80
2018-06-20T21:00:25.619Z,4.17
2018-06-20T21:02:53.304Z,3.93
2018-06-20T21:05:21.230Z,3.93
2018-06-20T21:07:48.953Z,4.40
2018-06-20T21:10:16.657Z,3.53
2018-06-20T21:12:44.606Z,5.40
2018-06-20T21:15:13.479Z,5.67
2018-06-20T21:17:41.214Z,3.73
2018-06-20T21:20:09.140Z,4.13
2018-06-20T21:22:37.010Z,5.70
2018-06-20T21:25:04.709Z,3.77
2018-06-20T21:27:32.691Z,3.47
2018-06-20T21:30:01.010Z,5.50
2018-06-20T21:32:28.682Z,4.40
2018-06-20T21:34:56.611Z,5.87
2018-06-20T21:37:24.695Z,4.00
2018-06-20T21:39:52.509Z,3.83
2018-06-20T21:42:20.396Z,4.77
2018-06-20T21:44:48.624Z,4.27
2018-06-20T21:47:16.601Z,9.03
2018-06-20T21:49:44.274Z,4.50
2018-06-20T21:52:12.014Z,4.20
2018-06-20T21:54:40.002Z,3.40
2018-06-20T21:57:07.990Z,4.00
2018-06-20T21:59:35.617Z,4.33
2018-06-20T22:02:03.343Z,4.13
2018-06-20T22:04:31.116Z,4.13
2018-06-20T22:06:58.902Z,4.17
2018-06-20T22:09:27.818Z,4.33
2018-06-20T22:11:55.664Z,3.40
2018-06-20T22:14:25.471Z,4.00
2018-06-20T22:16:53.443Z,3.70
2018-06-20T22:19:21.157Z,4.73
2018-06-20T22:21:49.131Z,4.40
2018-06-20T22:24:17.068Z,4.50
2018-06-20T22:26:44.938Z,10.43
2018-06-20T22:29:13.026Z,5.50
2018-06-20T22:31:40.741Z,3.97
2018-06-20T22:34:08.436Z,4.60
2018-06-20T22:36:36.732Z,6.90
2018-06-20T22:39:07.051Z,4.93
2018-06-20T22:41:35.652Z,5.80
2018-06-20T22:44:03.729Z,4.17
2018-06-20T22:46:31.388Z,3.93
2018-06-20T22:48:59.187Z,4.60
2018-06-20T22:51:27.096Z,3.50
2018-06-20T22:53:55.031Z,4.23
2018-06-20T22:56:23.056Z,3.80
2018-06-20T22:58:50.825Z,3.90
2018-06-20T23:01:18.811Z,3.70
2018-06-20T23:03:46.868Z,4.07
2018-06-20T23:06:14.712Z,9.23
2018-06-20T23:08:42.456Z,4.77
2018-06-20T23:11:10.419Z,4.37
2018-06-20T23:13:38.045Z,4.20
2018-06-20T23:16:05.934Z,3.77
2018-06-20T23:18:33.613Z,9.00
2018-06-20T23:21:01.524Z,3.73
2018-06-20T23:23:29.297Z,5.90
2018-06-20T23:25:57.061Z,3.40
2018-06-20T23:28:24.867Z,3.97
2018-06-20T23:30:52.756Z,3.97
2018-06-20T23:33:20.754Z,3.90
2018-06-20T23:35:48.556Z,3.30
2018-06-20T23:38:16.284Z,4.17
2018-06-20T23:40:45.121Z,4.00
2018-06-20T23:43:13.040Z,6.30
2018-06-20T23:45:40.722Z,4.60
2018-06-20T23:48:08.418Z,3.73
2018-06-20T23:50:36.134Z,3.80
2018-06-20T23:53:03.858Z,3.63
2018-06-20T23:55:31.484Z,3.90
2018-06-20T23:57:59.205Z,5.20
